Time;durP1;ratioP1;P1;durP2;ratioP2;P2;SDS_P1;SDS_P2;PMS_P1;PMS_P2;Temp;Humidity;BMP_temperature;BMP_pressure;BME280_temperature;BME280_humidity;BME280_pressure;Samples;Min_cycle;Max_cycle;Signal;HPM_P1;HPM_P2
2021/12/08 00:03:55;;;;;;;37.80;16.10;;;;;;;-0.71;82.52;98273.27;213607;1322;24479;-71
2021/12/08 00:09:25;;;;;;;36.10;16.50;;;;;;;-0.72;82.21;98265.28;213646;1323;24350;-71
2021/12/08 00:14:28;;;;;;;37.10;16.10;;;;;;;-0.70;82.52;98268.77;213521;1320;171615;-72
2021/12/08 00:19:31;;;;;;;33.00;15.60;;;;;;;-0.71;82.55;98271.92;214006;1320;22646;-71
2021/12/08 00:24:34;;;;;;;26.20;13.50;;;;;;;-0.67;82.45;98273.17;213880;1323;22917;-72
2021/12/08 00:29:37;;;;;;;28.10;14.30;;;;;;;-0.63;82.56;98270.08;213834;1322;22629;-72
2021/12/08 00:34:42;;;;;;;26.10;14.10;;;;;;;-0.60;82.18;98280.30;213912;1323;22775;-72
2021/12/08 00:40:01;;;;;;;26.90;13.70;;;;;;;-0.61;82.21;98288.54;213846;1323;22603;-72
2021/12/08 00:45:07;;;;;;;25.90;14.00;;;;;;;-0.62;82.31;98287.21;213884;1323;22639;-72
2021/12/08 00:50:23;;;;;;;25.20;12.70;;;;;;;-0.62;82.13;98291.67;213750;1323;22586;-71
2021/12/08 00:55:27;;;;;;;30.60;13.40;;;;;;;-0.65;82.09;98302.71;213599;1323;22816;-71
2021/12/08 01:00:45;;;;;;;25.50;12.60;;;;;;;-0.68;81.73;98283.92;213748;1322;23065;-70
2021/12/08 01:05:53;;;;;;;21.00;11.80;;;;;;;-0.71;81.47;98271.80;213663;1323;27497;-72
2021/12/08 01:10:59;;;;;;;24.10;11.80;;;;;;;-0.83;81.33;98251.77;213611;1323;22673;-72
2021/12/08 01:16:02;;;;;;;21.10;11.40;;;;;;;-0.96;81.47;98231.91;213697;1323;22553;-72
2021/12/08 01:21:08;;;;;;;25.60;13.00;;;;;;;-1.01;81.68;98245.86;213728;1321;22785;-72
2021/12/08 01:26:10;;;;;;;25.30;11.80;;;;;;;-1.04;81.50;98256.10;213902;1323;22779;-71
2021/12/08 01:31:43;;;;;;;23.40;12.00;;;;;;;-0.99;81.91;98254.80;213565;1323;22612;-71
2021/12/08 01:36:49;;;;;;;25.20;13.00;;;;;;;-0.93;81.71;98266.57;213505;1323;25496;-72
2021/12/08 01:41:53;;;;;;;28.00;12.00;;;;;;;-0.92;81.73;98273.52;213525;1323;23266;-72
2021/12/08 01:47:01;;;;;;;32.00;14.60;;;;;;;-0.94;81.52;98264.66;213768;1321;25484;-71
2021/12/08 01:52:06;;;;;;;34.10;16.40;;;;;;;-0.98;81.47;98242.58;213418;1324;25465;-71
2021/12/08 01:57:09;;;;;;;41.50;16.30;;;;;;;-1.03;81.39;98220.42;213477;1322;22635;-71
2021/12/08 02:02:14;;;;;;;36.50;15.80;;;;;;;-1.09;81.40;98209.51;213382;1322;26500;-72
2021/12/08 02:07:20;;;;;;;40.70;14.50;;;;;;;-1.15;81.46;98218.04;213581;1323;22647;-72
2021/12/08 02:12:22;;;;;;;35.00;14.90;;;;;;;-1.23;81.55;98229.61;213660;1323;24051;-71
2021/12/08 02:17:26;;;;;;;40.00;15.60;;;;;;;-1.31;81.65;98230.84;212739;1324;24052;-70
2021/12/08 02:22:36;;;;;;;39.10;15.50;;;;;;;-1.31;81.94;98224.54;213686;1323;24938;-71
2021/12/08 02:27:41;;;;;;;34.60;15.00;;;;;;;-1.33;81.86;98206.83;213647;1323;25333;-71
2021/12/08 02:50:20;;;;;;;;;;;;;;;;;;;;;
2021/12/08 02:56:11;;;;;;;;;;;;;;;;;;;;;
2021/12/08 03:02:14;;;;;;;20.20;10.90;;;;;;;-1.36;81.92;98170.13;213441;1322;22817;-71
2021/12/08 03:07:16;;;;;;;22.80;10.90;;;;;;;-1.35;81.59;98160.58;213275;1323;22576;-72
2021/12/08 03:12:32;;;;;;;24.90;11.90;;;;;;;-1.43;81.45;98158.91;213184;1321;24243;-71
2021/12/08 03:17:35;;;;;;;25.70;12.10;;;;;;;-1.46;81.54;98166.24;213553;1323;24278;-71
2021/12/08 03:22:44;;;;;;;26.40;12.10;;;;;;;-1.42;81.81;98175.39;213487;1324;22600;-72
2021/12/08 03:28:11;;;;;;;22.20;10.90;;;;;;;-1.46;81.33;98170.39;213614;1324;22661;-72
2021/12/08 03:33:14;;;;;;;23.70;11.60;;;;;;;-1.52;81.24;98163.09;213607;1324;24478;-72
2021/12/08 03:38:23;;;;;;;24.90;12.40;;;;;;;-1.55;81.37;98150.68;213675;1319;25468;-72
2021/12/08 03:43:37;;;;;;;21.20;10.00;;;;;;;-1.57;81.46;98148.27;213543;1323;22577;-71
2021/12/08 03:48:47;;;;;;;27.60;12.20;;;;;;;-1.55;81.51;98147.69;213508;1324;23710;-71
2021/12/08 03:53:50;;;;;;;27.80;13.90;;;;;;;-1.56;81.40;98146.77;213526;1324;22601;-70
2021/12/08 03:58:55;;;;;;;30.90;13.90;;;;;;;-1.56;81.62;98143.89;213722;1323;24639;-72
2021/12/08 04:04:01;;;;;;;32.50;14.90;;;;;;;-1.53;81.82;98151.25;213343;1318;24233;-72
2021/12/08 04:09:06;;;;;;;28.50;13.20;;;;;;;-1.48;81.70;98153.64;213389;1322;26092;-71
2021/12/08 04:14:20;;;;;;;25.60;12.20;;;;;;;-1.42;81.81;98143.86;213574;1322;24225;-71
2021/12/08 04:19:25;;;;;;;22.50;10.70;;;;;;;-1.44;81.25;98140.09;213482;1324;22655;-70
2021/12/08 04:24:28;;;;;;;24.30;9.80;;;;;;;-1.54;81.17;98146.09;213587;1324;24339;-71
2021/12/08 04:29:50;;;;;;;26.30;12.50;;;;;;;-1.58;81.43;98135.33;213561;1323;24259;-69
2021/12/08 04:35:04;;;;;;;26.90;11.80;;;;;;;-1.65;81.50;98125.73;212663;1324;24350;-71
2021/12/08 04:40:22;;;;;;;25.70;11.80;;;;;;;-1.70;81.33;98118.65;212445;1324;24465;-70
2021/12/08 04:45:40;;;;;;;27.30;12.10;;;;;;;-1.78;81.36;98109.30;212548;1323;22577;-71
2021/12/08 05:07:00;;;;;;;28.20;12.40;;;;;;;-1.93;81.65;98090.77;212872;1324;25360;-72
2021/12/08 05:12:34;;;;;;;30.80;13.60;;;;;;;-1.94;81.86;98094.54;213752;1322;25514;-71
2021/12/08 05:17:46;;;;;;;26.60;11.30;;;;;;;-1.94;81.70;98094.67;213446;1322;22583;-72
2021/12/08 05:22:58;;;;;;;27.70;11.40;;;;;;;-2.00;81.75;98095.41;213416;1324;24434;-72
2021/12/08 05:28:06;;;;;;;25.00;11.60;;;;;;;-2.09;81.73;98089.46;213701;1317;22574;-72
2021/12/08 05:33:10;;;;;;;22.60;9.60;;;;;;;-2.17;81.82;98081.10;213799;1323;26635;-72
2021/12/08 05:38:23;;;;;;;22.00;9.80;;;;;;;-2.25;81.95;98074.77;214058;1323;22650;-71
2021/12/08 05:43:26;;;;;;;23.50;8.90;;;;;;;-2.31;81.81;98078.69;214051;1322;22599;-71
2021/12/08 05:48:33;;;;;;;28.50;11.50;;;;;;;-2.41;81.83;98073.45;213883;1319;22723;-72
2021/12/08 05:54:14;;;;;;;;;;;;;;;;;;;;;
2021/12/08 05:59:54;;;;;;;23.50;9.20;;;;;;;-2.48;82.32;98073.36;213678;1316;22634;-71
2021/12/08 06:04:58;;;;;;;25.80;10.30;;;;;;;-2.46;82.43;98065.44;213382;1324;23138;-71
2021/12/08 06:10:07;;;;;;;19.70;8.90;;;;;;;-2.43;82.47;98062.95;213595;1324;22873;-71
2021/12/08 06:15:10;;;;;;;23.40;10.20;;;;;;;-2.47;82.38;98056.66;213655;1324;23275;-72
2021/12/08 06:20:16;;;;;;;24.10;9.90;;;;;;;-2.52;82.55;98063.45;213553;1317;22585;-73
2021/12/08 06:25:42;;;;;;;20.60;9.50;;;;;;;-2.51;82.42;98057.80;213523;1320;22656;-72
2021/12/08 06:30:49;;;;;;;24.30;9.20;;;;;;;-2.51;82.20;98053.27;213586;1319;22714;-72
2021/12/08 06:35:57;;;;;;;25.20;9.80;;;;;;;-2.52;82.22;98053.64;213797;1321;22678;-72
2021/12/08 06:41:29;;;;;;;27.30;11.30;;;;;;;-2.52;82.22;98048.59;213912;1323;22592;-71
2021/12/08 06:46:45;;;;;;;;;;;;;;;;;;;;;
2021/12/08 06:52:01;;;;;;;21.40;9.60;;;;;;;-2.53;82.04;98050.97;213898;1315;25780;-71
2021/12/08 06:57:48;;;;;;;21.40;9.90;;;;;;;-2.54;81.87;98046.38;214402;1315;22609;-71
2021/12/08 07:08:46;;;;;;;22.30;10.30;;;;;;;-2.50;81.96;98050.76;214035;1315;22624;-70
2021/12/08 07:13:52;;;;;;;19.70;8.60;;;;;;;-2.44;81.96;98061.66;214370;1315;22599;-71
2021/12/08 07:19:22;;;;;;;25.50;10.90;;;;;;;-2.32;82.10;98067.88;214003;1315;22537;-70
2021/12/08 07:24:37;;;;;;;21.10;10.30;;;;;;;-2.23;81.73;98070.23;214110;1315;22587;-70
2021/12/08 07:29:43;;;;;;;20.60;9.20;;;;;;;-2.26;81.56;98074.06;213178;1314;23147;-69
2021/12/08 07:34:52;;;;;;;20.80;10.20;;;;;;;-2.24;81.60;98077.48;214375;1315;22579;-68
2021/12/08 07:40:06;;;;;;;21.20;9.00;;;;;;;-2.18;81.43;98083.25;214074;1319;24272;-69
2021/12/08 07:45:24;;;;;;;22.40;9.90;;;;;;;-2.15;81.24;98087.14;214286;1315;22552;-71
2021/12/08 07:50:36;;;;;;;24.50;11.90;;;;;;;-2.13;81.01;98081.77;213054;1322;23187;-71
2021/12/08 07:55:42;;;;;;;21.20;10.40;;;;;;;-2.14;80.85;98085.45;212881;1321;25464;-71
2021/12/08 08:00:53;;;;;;;26.80;11.20;;;;;;;-2.12;80.92;98082.81;213032;1315;25721;-70
2021/12/08 08:05:56;;;;;;;24.00;11.00;;;;;;;-2.09;80.75;98085.41;212905;1315;25535;-72
2021/12/08 08:11:29;;;;;;;21.10;9.00;;;;;;;-2.02;81.16;98081.98;214125;1316;22817;-71
2021/12/08 08:16:35;;;;;;;26.10;11.10;;;;;;;-1.93;80.90;98076.85;214009;1315;228777;-71
2021/12/08 08:21:45;;;;;;;24.10;11.80;;;;;;;-1.83;81.01;98074.35;214436;1314;25478;-71
2021/12/08 08:27:02;;;;;;;26.80;12.20;;;;;;;-1.68;80.94;98069.77;214266;1322;25335;-71
2021/12/08 08:32:28;;;;;;;23.80;10.20;;;;;;;-1.53;80.73;98070.55;214118;1319;22776;-70
2021/12/08 08:37:31;;;;;;;24.70;11.00;;;;;;;-1.43;80.55;98074.58;214249;1318;22764;-72
2021/12/08 08:42:37;;;;;;;28.80;11.80;;;;;;;-1.41;80.22;98071.42;214248;1315;22578;-71
2021/12/08 08:47:50;;;;;;;24.40;11.60;;;;;;;-1.38;80.06;98068.96;213973;1317;22600;-72
2021/12/08 08:53:04;;;;;;;24.30;10.80;;;;;;;-1.27;80.28;98068.79;214543;1314;22568;-71
2021/12/08 08:58:37;;;;;;;27.10;12.20;;;;;;;-1.14;80.02;98071.60;213835;1322;22579;-71
2021/12/08 09:03:57;;;;;;;22.60;11.20;;;;;;;-1.08;79.62;98070.73;214295;1316;22880;-71
2021/12/08 09:09:03;;;;;;;23.90;10.60;;;;;;;-1.04;79.43;98069.44;214086;1314;23117;-71
2021/12/08 09:14:34;;;;;;;20.80;10.20;;;;;;;-1.02;79.10;98072.44;214199;1315;22633;-71
2021/12/08 09:19:43;;;;;;;23.80;10.50;;;;;;;-1.00;79.13;98080.15;214330;1315;22693;-71
2021/12/08 09:24:54;;;;;;;21.90;10.10;;;;;;;-0.90;79.05;98074.64;214360;1315;24931;-70
2021/12/08 09:30:01;;;;;;;18.90;9.70;;;;;;;-0.86;78.53;98067.25;214228;1315;22623;-71
2021/12/08 09:35:21;;;;;;;19.90;10.50;;;;;;;-0.91;78.20;98050.75;214109;1316;22892;-70
2021/12/08 09:40:49;;;;;;;19.20;10.00;;;;;;;-0.94;78.36;98041.59;214223;1315;25398;-71
2021/12/08 09:52:08;;;;;;;19.20;9.70;;;;;;;-0.91;78.05;98039.70;214313;1315;23113;-71
2021/12/08 09:57:16;;;;;;;20.90;10.10;;;;;;;-0.83;78.21;98038.02;213986;1316;24567;-71
2021/12/08 10:02:30;;;;;;;23.70;10.80;;;;;;;-0.77;78.10;98036.13;214206;1315;25562;-71
2021/12/08 10:07:53;;;;;;;22.30;10.90;;;;;;;-0.63;78.06;98027.77;214093;1315;23122;-71
2021/12/08 10:12:56;;;;;;;19.10;10.10;;;;;;;-0.43;77.95;98024.48;214115;1314;22997;-71
2021/12/08 10:18:03;;;;;;;20.90;10.00;;;;;;;-0.33;77.43;98019.98;214538;1314;22603;-70
2021/12/08 10:23:15;;;;;;;18.80;8.80;;;;;;;-0.32;77.15;98015.98;213002;1315;24481;-71
2021/12/08 10:28:28;;;;;;;17.30;9.20;;;;;;;-0.32;77.08;98003.30;214534;1314;23010;-72
2021/12/08 10:39:22;;;;;;;19.80;9.00;;;;;;;-0.49;76.33;97986.74;214450;1314;22740;-71
2021/12/08 10:45:23;;;;;;;19.80;9.40;;;;;;;-0.59;76.27;97983.60;214288;1314;25311;-70
2021/12/08 10:56:04;;;;;;;21.60;10.90;;;;;;;-0.55;76.79;97975.13;212381;1318;22583;-71
2021/12/08 11:01:16;;;;;;;20.50;11.40;;;;;;;-0.44;76.47;97968.71;214380;1315;25389;-71
2021/12/08 11:06:20;;;;;;;21.90;10.60;;;;;;;-0.39;76.40;97958.44;214362;1314;24299;-71
2021/12/08 11:11:47;;;;;;;20.00;11.40;;;;;;;-0.29;76.35;97953.45;214239;1314;25374;-70
2021/12/08 11:16:55;;;;;;;22.10;10.50;;;;;;;-0.35;75.58;97948.14;214303;1315;22853;-70
2021/12/08 11:22:05;;;;;;;22.70;10.70;;;;;;;-0.39;76.04;97946.66;212980;1315;24325;-70
2021/12/08 11:27:08;;;;;;;22.90;10.90;;;;;;;-0.45;75.54;97954.85;212696;1315;24365;-70
2021/12/08 11:32:18;;;;;;;25.70;11.80;;;;;;;-0.52;75.51;97950.63;214209;1316;24443;-72
2021/12/08 11:37:25;;;;;;;27.70;13.00;;;;;;;-0.57;75.72;97947.45;214183;1315;22608;-70
2021/12/08 11:42:35;;;;;;;22.30;11.50;;;;;;;-0.57;76.25;97936.52;214104;1315;22686;-71
2021/12/08 11:47:38;;;;;;;22.50;11.20;;;;;;;-0.47;76.08;97932.05;214087;1315;24339;-72
2021/12/08 11:52:40;;;;;;;23.30;11.90;;;;;;;-0.54;75.65;97922.41;212550;1315;24284;-70
2021/12/08 11:58:06;;;;;;;27.50;13.50;;;;;;;-0.63;75.72;97918.45;212580;1314;23145;-70
2021/12/08 12:03:10;;;;;;;24.90;12.20;;;;;;;-0.82;75.60;97921.34;212615;1316;22586;-70
2021/12/08 12:08:24;;;;;;;22.00;10.80;;;;;;;-1.06;75.85;97919.35;212836;1316;24122;-71
2021/12/08 12:13:48;;;;;;;21.60;11.10;;;;;;;-1.11;76.30;97921.92;214068;1314;22654;-70
2021/12/08 12:19:01;;;;;;;26.20;12.50;;;;;;;-1.26;75.98;97924.75;213768;1316;22730;-70
2021/12/08 12:25:23;;;;;;;25.80;12.40;;;;;;;-1.46;76.29;97929.41;213798;1316;22611;-71
2021/12/08 12:30:50;;;;;;;23.20;11.00;;;;;;;-1.46;76.63;97929.11;214235;1315;22603;-71
2021/12/08 12:35:57;;;;;;;26.20;11.90;;;;;;;-1.44;76.79;97924.13;214132;1314;25273;-72
2021/12/08 12:41:05;;;;;;;23.00;11.80;;;;;;;-1.46;76.67;97914.04;214164;1315;24362;-70
2021/12/08 12:46:15;;;;;;;25.90;12.10;;;;;;;-1.42;77.20;97912.60;212484;1315;24409;-70
2021/12/08 12:51:21;;;;;;;23.20;11.30;;;;;;;-1.30;76.98;97914.69;212650;1315;24252;-70
2021/12/08 12:56:57;;;;;;;24.70;12.80;;;;;;;-1.27;77.18;97905.23;212306;1315;23480;-70
2021/12/08 13:02:11;;;;;;;24.70;11.30;;;;;;;-1.26;77.04;97899.48;212593;1314;22664;-71
2021/12/08 13:07:25;;;;;;;23.50;12.30;;;;;;;-1.35;76.81;97894.23;212754;1315;22584;-70
2021/12/08 13:12:41;;;;;;;19.10;11.10;;;;;;;-1.37;77.07;97897.16;214263;1316;22728;-69
2021/12/08 13:18:03;;;;;;;21.60;10.70;;;;;;;-1.38;77.21;97909.27;214164;1314;22633;-70
2021/12/08 13:23:20;;;;;;;21.90;10.40;;;;;;;-1.47;76.98;97907.81;212398;1314;25734;-70
2021/12/08 13:28:47;;;;;;;23.00;11.20;;;;;;;-1.54;77.16;97918.45;213879;1315;25445;-70
2021/12/08 13:34:25;;;;;;;23.80;11.00;;;;;;;-1.56;77.45;97914.89;214685;1314;25566;-69
2021/12/08 13:40:48;;;;;;;;;;;;;;;;;;;;;
2021/12/08 13:45:55;;;;;;;18.60;10.50;;;;;;;-1.73;77.25;97907.89;212425;1315;22600;-71
2021/12/08 13:51:18;;;;;;;18.30;8.90;;;;;;;-1.92;77.42;97904.91;212258;1315;22794;-70
2021/12/08 13:56:40;;;;;;;20.30;10.40;;;;;;;-2.10;77.65;97903.83;212500;1314;23679;-70
2021/12/08 14:01:53;;;;;;;;;;;;;;;;;;;;;
2021/12/08 14:06:56;;;;;;;21.20;10.70;;;;;;;-2.25;78.33;97907.52;214188;1314;23440;-69
2021/12/08 14:11:58;;;;;;;24.50;11.30;;;;;;;-2.25;78.37;97909.48;212609;1315;25505;-69
2021/12/08 14:17:07;;;;;;;24.00;11.50;;;;;;;-2.26;78.46;97909.02;212692;1315;25413;-69
2021/12/08 14:22:21;;;;;;;20.10;10.50;;;;;;;-2.25;78.90;97909.00;212648;1315;24264;-70
2021/12/08 14:27:30;;;;;;;21.70;11.20;;;;;;;-2.21;78.67;97908.04;212652;1315;25567;-69
2021/12/08 14:32:33;;;;;;;21.20;11.20;;;;;;;-2.31;78.69;97905.90;212589;1315;24993;-69
2021/12/08 14:37:35;;;;;;;25.30;11.00;;;;;;;-2.39;78.75;97909.81;214328;1314;25479;-70
2021/12/08 14:42:38;;;;;;;24.40;11.50;;;;;;;-2.41;78.86;97903.30;214356;1314;26492;-70
2021/12/08 14:47:53;;;;;;;25.80;11.40;;;;;;;-2.44;79.02;97905.81;212341;1315;25413;-70
2021/12/08 14:53:13;;;;;;;24.70;13.20;;;;;;;-2.41;79.36;97895.72;212410;1315;25277;-70
2021/12/08 14:58:37;;;;;;;24.80;13.20;;;;;;;-2.38;79.12;97892.84;214221;1315;24543;-69
2021/12/08 15:03:52;;;;;;;25.60;11.90;;;;;;;-2.36;79.41;97901.95;214555;1314;25735;-70
2021/12/08 15:09:15;;;;;;;24.80;12.40;;;;;;;-2.49;79.13;97903.11;213957;1315;22578;-70
2021/12/08 15:14:21;;;;;;;26.50;13.30;;;;;;;-2.56;79.50;97904.61;213859;1315;22648;-70
2021/12/08 15:19:28;;;;;;;23.40;12.10;;;;;;;-2.67;79.32;97902.63;212941;1314;25502;-68
2021/12/08 15:24:33;;;;;;;26.60;13.30;;;;;;;-2.70;79.60;97893.57;212881;1315;22590;-70
2021/12/08 15:29:41;;;;;;;27.50;12.80;;;;;;;-2.67;79.97;97896.67;212418;1316;24255;-70
2021/12/08 15:34:44;;;;;;;25.80;13.40;;;;;;;-2.60;80.14;97895.40;212853;1315;22613;-70
2021/12/08 15:39:56;;;;;;;24.20;12.10;;;;;;;-2.56;80.17;97893.77;212495;1315;22695;-70
2021/12/08 15:45:01;;;;;;;35.90;13.80;;;;;;;-2.60;80.08;97886.71;213620;1316;24427;-69
2021/12/08 15:51:37;;;;;;;24.80;12.30;;;;;;;-2.65;80.18;97886.84;213928;1315;25471;-69
2021/12/08 15:56:20;;;;;;;23.60;12.10;;;;;;;-2.71;80.09;97883.81;214836;1314;22601;-72
2021/12/08 16:01:31;;;;;;;27.90;12.10;;;;;;;-2.80;79.99;97874.71;212741;1315;22598;-71
2021/12/08 16:06:50;;;;;;;21.20;11.70;;;;;;;-2.86;80.16;97873.67;213905;1315;22650;-70
2021/12/08 16:11:59;;;;;;;18.70;10.60;;;;;;;-2.84;80.45;97885.51;213821;1322;25744;-70
2021/12/08 16:17:13;;;;;;;23.70;12.20;;;;;;;-2.83;80.63;97890.67;213546;1320;374039;-70
2021/12/08 16:22:20;;;;;;;23.30;10.80;;;;;;;-2.82;80.61;97893.64;213928;1322;22717;-71
2021/12/08 16:27:29;;;;;;;24.60;13.00;;;;;;;-2.85;80.40;97903.70;213924;1322;26489;-70
2021/12/08 16:32:36;;;;;;;26.00;13.70;;;;;;;-3.01;80.48;97901.28;213985;1322;22831;-71
2021/12/08 16:37:48;;;;;;;29.90;15.00;;;;;;;-3.02;80.93;97903.72;213835;1322;22803;-70
2021/12/08 16:43:03;;;;;;;29.30;13.30;;;;;;;-2.95;81.17;97909.23;213806;1323;23118;-71
2021/12/08 16:48:11;;;;;;;24.70;14.20;;;;;;;-2.86;81.28;97925.20;213704;1323;25686;-71
2021/12/08 16:53:19;;;;;;;25.90;13.80;;;;;;;-2.85;80.97;97934.46;213856;1321;23295;-70
2021/12/08 16:58:28;;;;;;;27.00;14.10;;;;;;;-2.83;81.06;97931.94;213944;1323;25626;-71
2021/12/08 17:03:43;;;;;;;26.60;12.80;;;;;;;-2.80;81.20;97922.83;213792;1323;24274;-71
2021/12/08 17:09:06;;;;;;;28.50;13.20;;;;;;;-2.85;80.78;97898.95;213910;1324;22819;-71
2021/12/08 17:14:12;;;;;;;24.40;12.60;;;;;;;-2.90;81.26;97877.60;215123;1324;22694;-71
2021/12/08 17:19:14;;;;;;;26.90;13.80;;;;;;;-2.95;81.07;97890.64;212411;1324;25360;-71
2021/12/08 17:24:36;;;;;;;;;;;;;;;;;;;;;
2021/12/08 17:30:39;;;;;;;31.00;16.20;;;;;;;-2.90;81.40;97895.48;213092;1324;22789;-71
2021/12/08 17:35:58;;;;;;;32.20;15.10;;;;;;;-2.90;81.29;97899.09;213530;1323;23091;-71
2021/12/08 17:41:02;;;;;;;34.00;17.90;;;;;;;-2.98;81.40;97893.82;212496;1323;22782;-72
2021/12/08 17:46:12;;;;;;;33.80;16.20;;;;;;;-3.02;81.49;97889.81;213446;1323;22731;-71
2021/12/08 17:51:21;;;;;;;39.10;17.90;;;;;;;-2.98;81.91;97887.45;213480;1315;22775;-71
2021/12/08 17:56:24;;;;;;;29.30;14.30;;;;;;;-2.94;81.96;97885.67;213424;1323;22749;-71
2021/12/08 18:01:45;;;;;;;31.60;16.20;;;;;;;-2.96;81.71;97891.55;213135;1323;22707;-70
2021/12/08 18:06:47;;;;;;;30.60;15.20;;;;;;;-2.94;81.59;97888.09;213572;1322;22594;-71
2021/12/08 18:11:53;;;;;;;31.50;16.20;;;;;;;-2.92;81.79;97873.30;213618;1323;22724;-71
2021/12/08 18:17:08;;;;;;;30.50;15.30;;;;;;;-2.96;81.57;97869.16;213692;1322;22587;-70
2021/12/08 18:22:18;;;;;;;30.50;15.20;;;;;;;-3.01;81.65;97876.33;214151;1324;24873;-70
2021/12/08 18:27:24;;;;;;;30.10;14.00;;;;;;;-3.05;81.76;97878.48;213629;1323;22723;-70
2021/12/08 18:32:26;;;;;;;30.40;14.50;;;;;;;-3.05;81.83;97883.36;213548;1323;22607;-70
2021/12/08 18:37:42;;;;;;;;;;;;;;;;;;;;;
2021/12/08 18:42:47;;;;;;;23.80;12.50;;;;;;;-3.08;81.66;97867.12;213575;1323;22659;-71
2021/12/08 18:48:06;;;;;;;27.80;14.30;;;;;;;-3.11;81.71;97865.21;213218;1324;22639;-71
2021/12/08 18:53:22;;;;;;;27.20;12.90;;;;;;;-3.17;81.62;97855.21;213670;1319;26486;-71
2021/12/08 18:58:45;;;;;;;32.40;15.70;;;;;;;-3.18;81.92;97851.04;213817;1322;26278;-71
2021/12/08 19:03:50;;;;;;;30.50;15.40;;;;;;;-3.17;81.90;97846.27;213727;1323;25640;-71
2021/12/08 19:08:56;;;;;;;29.70;14.30;;;;;;;-3.16;81.85;97836.95;213769;1323;25629;-71
2021/12/08 19:13:59;;;;;;;29.20;13.50;;;;;;;-3.17;81.95;97831.52;213627;1316;25648;-71
2021/12/08 19:19:02;;;;;;;28.10;14.30;;;;;;;-3.16;82.04;97831.30;213738;1323;25769;-70
2021/12/08 19:24:08;;;;;;;27.40;14.10;;;;;;;-3.25;81.78;97821.30;213769;1323;25587;-71
2021/12/08 19:29:54;;;;;;;32.40;15.60;;;;;;;-3.27;82.10;97826.29;214047;1322;25557;-71
2021/12/08 19:35:00;;;;;;;31.30;15.20;;;;;;;-3.30;81.70;97824.75;214035;1321;22926;-71
2021/12/08 19:40:07;;;;;;;24.70;12.30;;;;;;;-3.34;81.78;97828.56;214237;1322;22660;-71
2021/12/08 19:45:12;;;;;;;32.00;15.60;;;;;;;-3.37;81.92;97844.11;213925;1322;25692;-71
2021/12/08 19:50:15;;;;;;;26.90;15.00;;;;;;;-3.33;82.10;97846.64;213868;1321;22801;-72
2021/12/08 19:55:19;;;;;;;27.20;15.00;;;;;;;-3.34;81.83;97846.67;213619;1315;25545;-72
2021/12/08 20:00:27;;;;;;;32.30;15.60;;;;;;;-3.33;82.07;97842.85;213525;1324;25538;-72
2021/12/08 20:05:34;;;;;;;32.80;16.40;;;;;;;-3.33;81.90;97839.98;213881;1322;25316;-71
2021/12/08 20:10:46;;;;;;;26.90;14.00;;;;;;;-3.31;82.20;97828.92;213875;1324;23170;-71
2021/12/08 20:16:10;;;;;;;29.80;14.90;;;;;;;-3.30;82.16;97820.61;213573;1322;25583;-72
2021/12/08 20:21:28;;;;;;;22.00;12.50;;;;;;;-3.30;82.25;97819.45;212582;1324;24325;-71
2021/12/08 20:26:34;;;;;;;31.30;14.10;;;;;;;-3.34;81.83;97824.16;213633;1324;22632;-71
2021/12/08 20:31:44;;;;;;;25.50;13.30;;;;;;;-3.45;81.81;97818.29;213503;1324;24269;-72
2021/12/08 20:36:47;;;;;;;27.80;14.90;;;;;;;-3.48;82.07;97817.23;213721;1324;22773;-71
2021/12/08 20:41:56;;;;;;;30.40;15.50;;;;;;;-3.46;82.10;97823.42;213725;1323;22773;-72
2021/12/08 20:47:10;;;;;;;33.60;16.00;;;;;;;-3.44;82.23;97819.77;213888;1324;22817;-69
2021/12/08 20:52:13;;;;;;;30.90;15.40;;;;;;;-3.39;82.27;97819.84;213903;1317;23113;-71
2021/12/08 20:57:18;;;;;;;29.40;14.70;;;;;;;-3.33;82.30;97823.98;214148;1319;22762;-71
2021/12/08 21:02:23;;;;;;;28.50;15.00;;;;;;;-3.34;82.05;97821.98;213895;1323;22788;-71
2021/12/08 21:07:41;;;;;;;38.30;18.30;;;;;;;-3.35;82.24;97815.67;213691;1321;22599;-71
2021/12/08 21:12:44;;;;;;;32.20;17.50;;;;;;;-3.25;82.41;97811.56;213962;1322;24402;-71
2021/12/08 21:17:58;;;;;;;33.40;16.90;;;;;;;-3.19;82.34;97808.74;214047;1320;24271;-71
2021/12/08 21:23:12;;;;;;;30.20;14.70;;;;;;;-3.21;82.08;97796.15;213935;1323;24427;-71
2021/12/08 21:28:34;;;;;;;29.00;16.00;;;;;;;-3.22;82.10;97789.75;212746;1324;23076;-71
2021/12/08 21:33:54;;;;;;;;;;;;;;;;;;;;;
2021/12/08 21:38:59;;;;;;;31.40;15.80;;;;;;;-3.27;81.88;97796.06;213155;1322;22579;-72
2021/12/08 21:44:03;;;;;;;27.80;15.20;;;;;;;-3.35;81.82;97795.55;214075;1319;24477;-71
2021/12/08 21:49:20;;;;;;;29.90;15.60;;;;;;;-3.40;81.97;97803.70;213748;1323;22791;-72
2021/12/08 21:54:46;;;;;;;30.20;15.10;;;;;;;-3.39;82.18;97802.92;213781;1322;22763;-71
2021/12/08 21:59:48;;;;;;;27.30;14.70;;;;;;;-3.38;82.22;97800.17;213999;1322;24443;-71
2021/12/08 22:05:20;;;;;;;22.80;12.70;;;;;;;-3.35;82.19;97806.23;213822;1323;22733;-71
2021/12/08 22:10:37;;;;;;;25.90;13.80;;;;;;;-3.34;81.98;97812.11;213591;1323;22715;-71
2021/12/08 22:15:50;;;;;;;26.90;14.10;;;;;;;-3.32;81.95;97825.48;213665;1324;25633;-71
2021/12/08 22:21:02;;;;;;;27.40;14.50;;;;;;;-3.22;82.18;97821.23;213667;1323;23157;-70
2021/12/08 22:26:16;;;;;;;27.70;13.90;;;;;;;-3.19;82.07;97813.61;213759;1318;22913;-71
2021/12/08 22:31:26;;;;;;;30.70;15.20;;;;;;;-3.14;82.09;97814.67;213909;1323;22634;-71
2021/12/08 22:36:37;;;;;;;29.60;15.40;;;;;;;-3.10;81.93;97810.02;213476;1323;22672;-69
2021/12/08 22:41:43;;;;;;;31.90;15.20;;;;;;;-3.06;82.03;97803.83;213663;1323;22942;-71
2021/12/08 22:46:56;;;;;;;24.40;12.40;;;;;;;-3.05;81.84;97796.81;213560;1322;25641;-70
2021/12/08 22:51:59;;;;;;;28.10;14.30;;;;;;;-3.00;82.07;97794.75;213843;1315;22654;-71
2021/12/08 22:57:12;;;;;;;31.70;14.20;;;;;;;-3.00;81.97;97781.70;213833;1322;22792;-69
2021/12/08 23:02:26;;;;;;;28.10;14.90;;;;;;;-3.00;81.81;97781.01;213920;1322;25634;-71
2021/12/08 23:13:19;;;;;;;29.60;14.20;;;;;;;-2.98;81.92;97772.63;212737;1323;22653;-70
2021/12/08 23:18:27;;;;;;;22.40;12.50;;;;;;;-2.97;81.98;97761.56;214134;1319;22731;-70
2021/12/08 23:23:33;;;;;;;29.40;14.40;;;;;;;-2.95;81.90;97759.29;213992;1323;22653;-71
2021/12/08 23:28:37;;;;;;;23.60;12.00;;;;;;;-2.99;81.72;97751.08;213843;1323;24373;-71
2021/12/08 23:34:03;;;;;;;27.80;14.60;;;;;;;-3.03;81.49;97748.30;213903;1323;22601;-72
2021/12/08 23:39:16;;;;;;;23.90;13.40;;;;;;;-3.11;81.56;97743.64;213984;1323;22673;-71
2021/12/08 23:44:36;;;;;;;;;;;;;;;;;;;;;
2021/12/08 23:49:59;;;;;;;28.30;13.40;;;;;;;-3.11;82.09;97740.94;213796;1322;22672;-71
